Montrose, Mississippi
Current Conditions -  °F | °C
As of 9:58 AM on Monday 24 Nov 2014 (Local Time) from KMEI Reporting Station
Scattered Clouds Scattered Clouds  
Wind Chill: 62°   Ceiling: Unl
Heat Index: 62°   Visibility: 10mi
Dew Point: 48°   Wind: 17mph
Humidity: 60%   Direction: 310°NW
Pressure: 29.89"   Gusts: NA
Location:  32.135°N, 89.2194°W
Report Text: KMEI 241558Z 31015KT 10SM SCT029 17/09 A2989 RMK AO2 SLP120 T01670089
Loading
Personal Weather Stations






























Interactive Weather Map New forecast layout! Learn more

10-Day Weather Forecast

Advertisements
Track Severe Weather on mobile